createdAt,value
2022-10-25T00:01:19.766Z,66796.50
2022-10-25T00:06:25.270Z,66749.59
2022-10-25T00:11:31.537Z,66831.38
2022-10-25T00:16:37.770Z,66819.19
2022-10-25T00:21:43.046Z,66763.59
2022-10-25T00:26:46.739Z,66787.81
2022-10-25T00:31:50.443Z,66822.81
2022-10-25T00:36:55.412Z,66813.75
2022-10-25T00:41:59.163Z,66776.66
2022-10-25T00:47:03.951Z,66862.13
2022-10-25T00:52:09.727Z,66759.88
2022-10-25T00:57:17.386Z,66715.63
2022-10-25T01:02:23.480Z,66745.44
2022-10-25T01:07:28.698Z,66752.81
2022-10-25T01:12:32.337Z,66803.50
2022-10-25T01:17:47.228Z,66805.19
2022-10-25T01:22:57.005Z,66865.44
2022-10-25T01:28:14.695Z,66763.66
2022-10-25T01:33:24.508Z,66788.41
2022-10-25T01:38:39.801Z,66728.69
2022-10-25T01:43:55.102Z,66735.59
2022-10-25T01:49:05.094Z,66702.25
2022-10-25T01:54:20.455Z,66697.47
2022-10-25T01:59:35.152Z,66702.25
2022-10-25T02:04:51.669Z,66625.31
2022-10-25T02:10:03.959Z,66640.53
2022-10-25T02:15:12.987Z,66675.41
2022-10-25T02:20:21.647Z,66611.28
2022-10-25T02:25:25.324Z,66674.78
2022-10-25T02:30:30.237Z,66608.66
2022-10-25T02:35:35.342Z,66723.16
2022-10-25T02:40:39.133Z,66742.53
2022-10-25T02:45:42.786Z,66651.22
2022-10-25T02:50:47.863Z,66664.72
2022-10-25T02:56:01.022Z,66725.47
2022-10-25T03:01:05.403Z,66715.69
2022-10-25T03:06:13.139Z,66707.63
2022-10-25T03:11:18.578Z,66691.09
2022-10-25T03:16:22.292Z,66685.63
2022-10-25T03:21:27.523Z,66664.03
2022-10-25T03:26:31.205Z,66614.09
2022-10-25T03:31:34.883Z,66613.66
2022-10-25T03:36:39.913Z,66651.22
2022-10-25T03:41:45.330Z,66574.25
2022-10-25T03:46:52.396Z,66550.59
2022-10-25T03:52:02.799Z,66592.53
2022-10-25T03:57:10.149Z,66611.50
2022-10-25T04:02:17.648Z,66602.81
2022-10-25T04:07:25.948Z,66563.03
2022-10-25T04:12:33.086Z,66510.28
2022-10-25T04:17:40.005Z,66517.81
2022-10-25T04:22:47.666Z,66531.84
2022-10-25T04:27:54.967Z,66516.19
2022-10-25T04:33:01.549Z,66508.13
2022-10-25T04:38:10.166Z,66512.97
2022-10-25T04:43:16.820Z,66564.09
2022-10-25T04:48:24.460Z,66534.00
2022-10-25T04:53:32.943Z,66523.34
2022-10-25T04:58:40.281Z,66582.84
2022-10-25T05:03:47.401Z,66561.97
2022-10-25T05:08:55.879Z,66608.66
2022-10-25T05:14:02.756Z,66661.81
2022-10-25T05:19:10.284Z,66646.91
2022-10-25T05:24:18.607Z,66660.81
2022-10-25T05:29:25.722Z,66553.47
2022-10-25T05:34:32.935Z,66648.44
2022-10-25T05:39:41.262Z,66700.09
2022-10-25T05:44:47.870Z,66546.28
2022-10-25T05:49:52.582Z,66649.06
2022-10-25T05:54:57.641Z,66659.81
2022-10-25T06:00:02.327Z,66679.09
2022-10-25T06:05:11.477Z,66671.03
2022-10-25T06:10:20.025Z,66635.69
2022-10-25T06:15:27.406Z,66608.50
2022-10-25T06:20:34.900Z,66596.38
2022-10-25T06:25:43.663Z,66640.91
2022-10-25T06:30:50.964Z,66801.72
2022-10-25T06:35:59.066Z,66716.25
2022-10-25T06:41:09.915Z,66758.81
2022-10-25T06:46:23.047Z,66796.97
2022-10-25T06:51:32.719Z,66805.19
2022-10-25T06:56:41.480Z,66859.59
2022-10-25T07:01:48.765Z,66793.88
2022-10-25T07:06:56.072Z,66816.97
2022-10-25T07:12:06.631Z,66779.28
2022-10-25T07:17:17.631Z,66669.50
2022-10-25T07:22:24.378Z,66660.88
2022-10-25T07:27:34.520Z,66708.78
2022-10-25T07:32:42.577Z,66776.59
2022-10-25T07:37:50.070Z,66893.84
2022-10-25T07:42:57.830Z,66742.75
2022-10-25T07:48:02.729Z,66776.72
2022-10-25T07:53:06.788Z,66775.03
2022-10-25T07:58:12.877Z,66739.53
2022-10-25T08:03:18.506Z,66768.03
2022-10-25T08:08:23.369Z,66785.09
2022-10-25T08:13:28.875Z,66807.72
2022-10-25T08:18:33.149Z,66827.81
2022-10-25T08:23:37.169Z,66856.28
2022-10-25T08:28:44.700Z,66782.41
2022-10-25T08:33:51.952Z,66720.63
2022-10-25T08:38:58.788Z,66755.97
2022-10-25T08:44:26.547Z,66801.97
2022-10-25T08:49:43.142Z,66847.59
2022-10-25T08:54:49.557Z,66842.69
2022-10-25T08:59:57.569Z,66986.69
2022-10-25T09:05:03.467Z,67003.88
2022-10-25T09:10:24.043Z,66985.06
2022-10-25T09:15:44.905Z,66924.63
2022-10-25T09:20:53.141Z,66911.28
2022-10-25T09:26:06.622Z,66877.28
2022-10-25T09:31:18.612Z,66868.66
2022-10-25T09:36:27.550Z,66878.38
2022-10-25T09:41:40.465Z,66889.69
2022-10-25T09:46:53.224Z,66901.59
2022-10-25T09:52:08.307Z,66877.28
2022-10-25T09:57:13.909Z,66932.31
2022-10-25T10:02:24.740Z,67015.72
2022-10-25T10:07:34.745Z,67016.34
2022-10-25T10:12:45.985Z,66926.31
2022-10-25T10:18:21.507Z,66866.06
2022-10-25T10:23:26.888Z,66825.59
2022-10-25T10:28:33.987Z,66813.19
2022-10-25T10:33:43.651Z,66851.44
2022-10-25T10:38:50.795Z,66840.13
2022-10-25T10:44:13.345Z,66845.53
2022-10-25T10:49:20.738Z,66853.03
2022-10-25T10:54:28.141Z,66901.47
2022-10-25T10:59:42.190Z,66918.25
2022-10-25T11:04:54.109Z,66940.94
2022-10-25T11:10:25.854Z,66936.03
2022-10-25T11:15:34.002Z,66920.22
2022-10-25T11:20:51.422Z,66947.97
2022-10-25T11:26:07.127Z,66968.81
2022-10-25T11:31:23.132Z,66978.13
2022-10-25T11:37:07.941Z,66968.81
2022-10-25T11:42:34.453Z,67000.63
2022-10-25T11:47:46.550Z,67069.66
2022-10-25T11:53:05.819Z,67072.91
2022-10-25T11:58:25.506Z,67118.81
2022-10-25T12:03:55.881Z,67218.13
2022-10-25T12:09:08.482Z,67257.09
2022-10-25T12:14:14.746Z,67071.88
2022-10-25T12:19:24.292Z,67072.50
2022-10-25T12:24:38.041Z,67191.16
2022-10-25T12:29:46.979Z,67190.13
2022-10-25T12:34:53.756Z,67203.63
2022-10-25T12:39:59.161Z,67181.44
2022-10-25T12:45:43.943Z,67174.47
2022-10-25T12:51:08.568Z,67122.06
2022-10-25T12:56:25.250Z,67046.56
2022-10-25T13:01:53.589Z,66978.59
2022-10-25T13:06:59.314Z,66865.34
2022-10-25T13:12:05.837Z,66821.75
2022-10-25T13:17:45.301Z,66804.59
2022-10-25T13:22:49.801Z,66771.19
2022-10-25T13:28:34.051Z,66787.34
2022-10-25T13:33:39.813Z,66789.66
2022-10-25T13:38:43.835Z,66767.97
2022-10-25T13:43:59.562Z,66818.53
2022-10-25T13:49:21.713Z,66816.50
2022-10-25T13:54:31.485Z,66746.91
2022-10-25T14:00:01.355Z,66730.84
2022-10-25T14:05:05.612Z,66723.78
2022-10-25T14:10:17.279Z,66711.53
2022-10-25T14:15:36.723Z,66681.34
2022-10-25T14:20:41.140Z,66606.66
2022-10-25T14:25:52.173Z,66623.78
2022-10-25T14:30:59.369Z,66672.56
2022-10-25T14:36:11.942Z,66711.47
2022-10-25T14:41:15.942Z,66708.16
2022-10-25T14:46:22.061Z,66842.22
2022-10-25T14:51:28.816Z,66854.59
2022-10-25T14:56:36.560Z,66934.09
2022-10-25T15:01:42.681Z,66953.81
2022-10-25T15:06:49.733Z,66991.53
2022-10-25T15:12:08.454Z,66995.31
2022-10-25T15:17:28.981Z,66960.72
2022-10-25T15:22:35.614Z,66930.09
2022-10-25T15:27:41.818Z,66863.22
2022-10-25T15:32:47.386Z,66922.53
2022-10-25T15:37:51.397Z,66881.66
2022-10-25T15:42:55.305Z,66882.28
2022-10-25T15:48:00.765Z,66717.84
2022-10-25T15:53:04.462Z,66784.56
2022-10-25T15:58:09.907Z,66797.56
2022-10-25T16:03:20.929Z,66809.94
2022-10-25T16:08:24.846Z,66837.81
2022-10-25T16:13:33.716Z,66874.69
2022-10-25T16:18:38.748Z,66813.13
2022-10-25T16:23:42.584Z,66824.44
2022-10-25T16:28:46.719Z,66797.66
2022-10-25T16:33:51.854Z,66775.56
2022-10-25T16:38:55.535Z,66749.06
2022-10-25T16:43:59.886Z,66767.91
2022-10-25T16:49:05.760Z,66681.88
2022-10-25T16:54:09.843Z,66595.84
2022-10-25T16:59:14.543Z,66558.28
2022-10-25T17:04:19.651Z,66698.63
2022-10-25T17:09:23.594Z,66644.28
2022-10-25T17:14:27.708Z,66745.84
2022-10-25T17:19:32.934Z,66730.75
2022-10-25T17:24:37.696Z,66654.28
2022-10-25T17:29:41.705Z,66702.94
2022-10-25T17:34:46.941Z,66791.09
2022-10-25T17:39:51.055Z,66831.50
2022-10-25T17:44:55.124Z,66671.72
2022-10-25T17:50:01.698Z,66584.00
2022-10-25T17:55:06.917Z,66482.44
2022-10-25T18:00:14.126Z,66477.53
2022-10-25T18:05:22.023Z,66494.72
2022-10-25T18:10:26.133Z,66484.06
2022-10-25T18:15:29.959Z,66608.03
2022-10-25T18:20:38.244Z,66744.84
2022-10-25T18:25:50.934Z,66687.22
2022-10-25T18:31:00.113Z,66506.59
2022-10-25T18:36:07.738Z,66492.09
2022-10-25T18:41:14.767Z,66452.81
2022-10-25T18:46:19.077Z,66461.41
2022-10-25T18:51:26.668Z,66488.88
2022-10-25T18:56:31.762Z,66509.28
2022-10-25T19:01:35.920Z,66466.84
2022-10-25T19:06:41.075Z,66490.41
2022-10-25T19:11:45.070Z,66452.81
2022-10-25T19:16:48.796Z,66469.63
2022-10-25T19:21:53.958Z,66605.88
2022-10-25T19:26:57.964Z,66580.41
2022-10-25T19:32:02.013Z,66651.22
2022-10-25T19:37:08.958Z,66584.47
2022-10-25T19:42:13.063Z,66551.72
2022-10-25T19:47:16.779Z,66522.28
2022-10-25T19:52:21.926Z,66520.09
2022-10-25T19:57:25.807Z,66559.34
2022-10-25T20:02:30.027Z,66536.63
2022-10-25T20:07:35.975Z,66509.28
2022-10-25T20:12:39.815Z,66459.25
2022-10-25T20:17:43.852Z,66514.50
2022-10-25T20:22:48.991Z,66492.09
2022-10-25T20:27:52.793Z,66437.84
2022-10-25T20:32:56.811Z,66479.19
2022-10-25T20:38:01.902Z,66517.81
2022-10-25T20:43:06.275Z,66515.75
2022-10-25T20:48:11.288Z,66584.38
2022-10-25T20:53:17.160Z,66711.38
2022-10-25T20:58:22.669Z,66623.25
2022-10-25T21:03:28.460Z,66561.44
2022-10-25T21:08:37.008Z,66658.13
2022-10-25T21:13:40.937Z,66555.94
2022-10-25T21:18:45.147Z,66703.78
2022-10-25T21:23:56.556Z,66623.25
2022-10-25T21:29:00.461Z,66565.66
2022-10-25T21:34:04.722Z,66478.59
2022-10-25T21:39:10.116Z,66555.94
2022-10-25T21:44:14.001Z,66545.38
2022-10-25T21:49:17.685Z,66631.69
2022-10-25T21:54:22.858Z,66603.34
2022-10-25T21:59:26.508Z,66544.22
2022-10-25T22:04:30.462Z,66430.97
2022-10-25T22:09:35.829Z,66449.75
2022-10-25T22:14:39.801Z,66405.00
2022-10-25T22:19:43.913Z,66431.44
2022-10-25T22:24:49.141Z,66433.03
2022-10-25T22:29:53.183Z,66372.97
2022-10-25T22:34:57.604Z,66396.41
2022-10-25T22:40:03.244Z,66406.16
2022-10-25T22:45:08.370Z,66402.94
2022-10-25T22:50:12.231Z,66403.03
2022-10-25T22:55:17.785Z,66403.56
2022-10-25T23:00:21.889Z,66388.06
2022-10-25T23:05:25.943Z,66360.09
2022-10-25T23:10:31.211Z,66403.03
2022-10-25T23:15:35.181Z,66368.59
2022-10-25T23:20:39.384Z,66399.72
2022-10-25T23:25:45.008Z,66391.59
2022-10-25T23:30:48.812Z,66326.44
2022-10-25T23:35:52.696Z,66292.41
2022-10-25T23:40:58.453Z,66275.88
2022-10-25T23:46:02.770Z,66337.91
2022-10-25T23:51:08.331Z,66452.38
2022-10-25T23:56:14.760Z,66480.91
